Time;durP1;ratioP1;P1;durP2;ratioP2;P2;SDS_P1;SDS_P2;PMS_P1;PMS_P2;Temp;Humidity;BMP_temperature;BMP_pressure;BME280_temperature;BME280_humidity;BME280_pressure;Samples;Min_cycle;Max_cycle;Signal;HPM_P1;HPM_P2
2023/06/07 00:01:57;;;;;;;12.00;5.40;;;;;;;15.49;68.94;101852.50;5014169;28;20054;-73
2023/06/07 00:04:45;;;;;;;10.45;5.15;;;;;;;15.43;69.60;101850.94;5027476;28;20092;-75
2023/06/07 00:07:30;;;;;;;10.82;5.53;;;;;;;15.38;69.36;101860.84;5025381;28;20129;-74
2023/06/07 00:10:15;;;;;;;10.38;4.97;;;;;;;15.37;69.66;101867.94;5029760;28;20492;-74
2023/06/07 00:13:01;;;;;;;10.07;5.25;;;;;;;15.34;69.80;101868.06;5027959;28;20053;-74
2023/06/07 00:15:47;;;;;;;11.43;5.82;;;;;;;15.27;69.90;101866.53;5014139;28;20041;-74
2023/06/07 00:18:32;;;;;;;10.90;5.32;;;;;;;15.25;70.19;101867.50;5027980;28;20061;-75
2023/06/07 00:21:19;;;;;;;10.90;5.30;;;;;;;15.22;70.17;101868.47;5015559;28;20104;-74
2023/06/07 00:24:05;;;;;;;11.02;5.72;;;;;;;15.18;70.36;101881.00;5026318;28;20133;-74
2023/06/07 00:26:51;;;;;;;12.02;5.75;;;;;;;15.15;70.11;101877.59;5027656;28;20061;-77
2023/06/07 00:29:36;;;;;;;14.57;5.57;;;;;;;15.10;70.75;101877.72;5029576;28;20050;-74
2023/06/07 00:32:22;;;;;;;9.82;5.50;;;;;;;15.05;70.59;101874.34;5011077;28;20149;-74
2023/06/07 00:35:11;;;;;;;12.23;5.38;;;;;;;14.98;70.59;101873.66;5020503;28;20432;-74
2023/06/07 00:37:56;;;;;;;11.95;5.80;;;;;;;14.95;70.96;101873.78;5024208;28;20054;-74
2023/06/07 00:40:42;;;;;;;8.52;5.07;;;;;;;14.90;71.11;101863.28;5017311;28;20065;-74
2023/06/07 00:43:27;;;;;;;11.05;5.57;;;;;;;14.86;71.07;101864.31;5023590;28;20569;-74
2023/06/07 00:46:14;;;;;;;11.07;5.85;;;;;;;14.84;71.41;101866.16;5011258;28;20046;-74
2023/06/07 00:49:00;;;;;;;12.10;5.65;;;;;;;14.83;71.44;101871.53;5018892;28;20141;-74
2023/06/07 00:51:47;;;;;;;8.80;5.82;;;;;;;14.82;71.27;101861.81;5024677;28;20058;-75
2023/06/07 00:54:32;;;;;;;10.38;5.65;;;;;;;14.76;71.50;101862.88;5026885;28;20101;-73
2023/06/07 00:57:18;;;;;;;11.65;5.35;;;;;;;14.72;71.67;101863.88;5024510;28;20093;-72
2023/06/07 01:00:06;;;;;;;13.02;6.10;;;;;;;14.63;71.72;101856.19;5012827;28;20062;-74
2023/06/07 01:02:53;;;;;;;13.15;6.13;;;;;;;14.54;72.23;101860.84;5026376;28;20058;-73
2023/06/07 01:05:38;;;;;;;11.70;5.60;;;;;;;14.50;72.30;101861.00;5021644;28;20900;-73
2023/06/07 01:08:25;;;;;;;12.05;6.15;;;;;;;14.43;72.47;101858.53;5024851;28;20050;-73
2023/06/07 01:11:12;;;;;;;17.33;6.18;;;;;;;14.37;72.68;101861.38;5017103;28;20042;-74
2023/06/07 01:13:58;;;;;;;15.65;6.40;;;;;;;14.33;72.92;101853.53;5011601;28;20042;-74
2023/06/07 01:16:48;;;;;;;10.57;6.13;;;;;;;14.25;73.15;101862.63;5011746;28;20038;-76
2023/06/07 01:19:36;;;;;;;11.25;6.35;;;;;;;14.25;73.14;101862.63;5013552;28;20106;-77
2023/06/07 01:22:32;;;;;;;13.35;6.68;;;;;;;14.22;73.05;101861.84;5013979;28;20050;-76
2023/06/07 01:25:18;;;;;;;18.90;6.78;;;;;;;14.19;73.29;101868.09;5027490;28;20058;-75
2023/06/07 01:28:05;;;;;;;12.85;6.80;;;;;;;14.13;73.93;101863.84;5011570;28;20101;-74
2023/06/07 01:30:54;;;;;;;16.67;6.90;;;;;;;14.07;73.41;101855.19;5026204;28;20928;-73
2023/06/07 01:33:42;;;;;;;14.05;6.80;;;;;;;14.06;73.73;101862.25;5018826;28;20045;-73
2023/06/07 01:36:30;;;;;;;11.52;6.80;;;;;;;14.06;73.65;101861.41;5013044;28;20038;-73
2023/06/07 01:39:19;;;;;;;15.68;6.80;;;;;;;14.02;73.87;101857.97;5024963;28;20050;-73
2023/06/07 01:42:08;;;;;;;14.40;7.63;;;;;;;13.95;74.12;101865.22;5001770;28;20050;-73
2023/06/07 01:44:57;;;;;;;12.23;7.32;;;;;;;13.89;74.09;101868.03;5012979;28;20966;-73
2023/06/07 01:47:43;;;;;;;14.40;7.10;;;;;;;13.84;74.47;101867.31;5006763;28;20046;-72
2023/06/07 01:50:29;;;;;;;14.45;6.75;;;;;;;13.80;74.75;101863.00;4994744;28;20771;-74
2023/06/07 01:53:15;;;;;;;11.88;6.60;;;;;;;13.81;74.54;101864.75;5022468;28;20057;-73
2023/06/07 01:56:35;;;;;;;15.63;7.78;;;;;;;13.79;74.65;101861.25;5021942;28;20046;-74
2023/06/07 01:59:49;;;;;;;12.80;6.78;;;;;;;13.76;74.83;101853.41;4968221;28;20046;-74
2023/06/07 02:03:01;;;;;;;12.70;6.80;;;;;;;13.63;75.06;101859.03;5026626;28;20042;-75
2023/06/07 02:05:59;;;;;;;12.85;7.00;;;;;;;13.61;75.51;101852.91;5027096;28;20109;-75
2023/06/07 02:08:54;;;;;;;12.75;6.80;;;;;;;13.60;75.63;101856.47;5006086;28;20120;-73
2023/06/07 02:11:42;;;;;;;10.90;6.82;;;;;;;13.61;75.75;101860.00;5021751;28;20046;-73
2023/06/07 02:14:28;;;;;;;12.13;6.88;;;;;;;13.58;75.71;101857.41;5012548;28;20473;-74
2023/06/07 02:17:13;;;;;;;13.07;6.90;;;;;;;13.55;75.50;101855.72;5006333;28;20090;-73
2023/06/07 02:19:59;;;;;;;13.68;7.53;;;;;;;13.54;75.66;101851.34;5007904;28;21080;-73
2023/06/07 02:22:45;;;;;;;12.15;6.60;;;;;;;13.50;76.07;101852.31;5002684;28;20046;-73
2023/06/07 02:25:34;;;;;;;12.77;7.03;;;;;;;13.43;76.17;101853.41;5001541;28;20054;-73
2023/06/07 02:28:19;;;;;;;13.13;6.70;;;;;;;13.43;76.47;101848.97;5001989;28;20145;-72
2023/06/07 02:31:05;;;;;;;14.30;7.03;;;;;;;13.41;76.86;101848.16;5018864;28;20545;-74
2023/06/07 02:33:50;;;;;;;13.23;6.80;;;;;;;13.33;76.75;101845.66;5016216;28;20050;-74
2023/06/07 02:36:40;;;;;;;10.68;6.93;;;;;;;13.30;77.10;101851.03;5004280;28;20054;-73
2023/06/07 02:39:25;;;;;;;13.77;7.07;;;;;;;13.26;77.39;101852.03;4990178;28;20042;-74
2023/06/07 02:42:10;;;;;;;14.10;6.80;;;;;;;13.22;77.08;101846.84;5004090;28;20046;-74
2023/06/07 02:44:56;;;;;;;13.80;7.20;;;;;;;13.27;77.31;101855.53;5003933;28;20077;-73
2023/06/07 02:47:43;;;;;;;13.82;6.65;;;;;;;13.26;77.28;101851.16;5005668;28;20091;-74
2023/06/07 02:50:29;;;;;;;13.65;6.78;;;;;;;13.18;77.33;101851.34;5005941;28;20058;-73
2023/06/07 02:53:15;;;;;;;13.88;6.80;;;;;;;13.20;77.54;101853.06;5001075;28;20125;-74
2023/06/07 02:56:00;;;;;;;12.30;6.72;;;;;;;13.18;77.27;101856.63;5008422;28;20101;-74
2023/06/07 02:58:45;;;;;;;12.82;6.90;;;;;;;13.18;77.67;101851.34;5004590;28;20050;-78
2023/06/07 03:01:33;;;;;;;11.73;6.28;;;;;;;13.15;77.71;101856.72;4984234;28;20491;-77
2023/06/07 03:04:19;;;;;;;13.48;6.90;;;;;;;13.08;77.78;101866.59;5003920;28;20050;-77
2023/06/07 03:07:07;;;;;;;12.18;6.53;;;;;;;13.09;77.82;101867.44;4992620;28;20133;-77
2023/06/07 03:09:57;;;;;;;16.15;6.95;;;;;;;13.07;77.85;101867.50;5003184;28;20050;-77
2023/06/07 03:12:42;;;;;;;12.00;6.55;;;;;;;13.01;78.17;101857.94;5005136;28;20038;-77
2023/06/07 03:15:28;;;;;;;14.70;6.50;;;;;;;12.95;77.98;101857.19;5006361;28;20054;-76
2023/06/07 03:18:15;;;;;;;10.77;6.50;;;;;;;12.92;78.36;101859.94;5003803;28;20505;-76
2023/06/07 03:21:06;;;;;;;14.00;6.22;;;;;;;12.93;78.58;101861.66;5005591;28;20474;-75
2023/06/07 03:23:53;;;;;;;13.20;6.68;;;;;;;12.89;78.44;101861.75;4998756;28;20042;-75
2023/06/07 03:26:39;;;;;;;13.73;6.47;;;;;;;12.88;78.99;101857.34;4999788;28;20066;-75
2023/06/07 03:29:26;;;;;;;15.00;7.10;;;;;;;12.86;78.83;101853.88;5019879;28;20121;-76
2023/06/07 03:32:13;;;;;;;11.75;6.30;;;;;;;12.82;79.06;101860.13;5019440;28;20046;-73
2023/06/07 03:34:58;;;;;;;13.10;6.63;;;;;;;12.81;79.23;101863.72;5008659;28;20519;-73
2023/06/07 03:37:44;;;;;;;11.82;6.63;;;;;;;12.78;79.40;101863.78;5007199;28;20222;-74
2023/06/07 03:40:29;;;;;;;12.90;6.53;;;;;;;12.74;79.64;101860.34;5001922;28;20042;-74
2023/06/07 03:43:17;;;;;;;13.98;6.72;;;;;;;12.74;79.41;101857.69;5001693;28;20091;-74
2023/06/07 03:46:02;;;;;;;11.52;6.50;;;;;;;12.69;79.00;101854.25;5007747;28;20656;-74
2023/06/07 03:48:49;;;;;;;13.25;6.53;;;;;;;12.71;79.64;101847.16;5007758;28;20046;-79
2023/06/07 03:51:38;;;;;;;12.43;6.40;;;;;;;12.70;79.65;101844.56;4995519;28;20050;-75
2023/06/07 03:54:25;;;;;;;14.35;6.07;;;;;;;12.73;79.54;101849.75;4992623;28;20058;-72
2023/06/07 03:57:11;;;;;;;12.15;6.35;;;;;;;12.74;79.58;101852.41;5008087;28;20534;-72
2023/06/07 04:00:00;;;;;;;12.05;6.18;;;;;;;12.79;79.33;101865.53;5020770;28;20597;-72
2023/06/07 04:02:48;;;;;;;13.68;6.38;;;;;;;12.75;79.80;101871.78;5008469;28;20086;-72
2023/06/07 04:05:38;;;;;;;13.02;6.85;;;;;;;12.79;79.21;101869.91;4995286;28;20078;-75
2023/06/07 04:08:24;;;;;;;10.65;6.10;;;;;;;12.74;79.55;101868.28;4999200;28;20042;-74
2023/06/07 04:11:09;;;;;;;12.80;6.55;;;;;;;12.73;79.02;101868.28;5006936;28;20050;-75
2023/06/07 04:13:55;;;;;;;14.77;6.85;;;;;;;12.74;79.32;101862.97;5008155;28;20081;-75
2023/06/07 04:16:44;;;;;;;14.63;7.05;;;;;;;12.70;79.56;101866.59;4993642;28;20144;-75
2023/06/07 04:19:29;;;;;;;10.57;5.82;;;;;;;12.77;78.93;101861.19;4991179;28;20908;-76
2023/06/07 04:22:16;;;;;;;11.63;6.05;;;;;;;12.77;79.02;101856.75;5009728;28;20051;-75
2023/06/07 04:25:03;;;;;;;16.23;6.60;;;;;;;12.70;78.97;101858.66;5010804;28;20050;-74
2023/06/07 04:27:48;;;;;;;12.77;6.00;;;;;;;12.68;79.43;101857.81;5025323;28;20546;-74
2023/06/07 04:30:34;;;;;;;10.52;6.28;;;;;;;12.64;79.51;101861.44;5023544;28;20050;-74
2023/06/07 04:33:21;;;;;;;11.07;6.57;;;;;;;12.66;79.11;101857.00;5009333;28;20050;-70
2023/06/07 04:36:08;;;;;;;11.40;6.25;;;;;;;12.67;79.29;101866.66;4992550;28;20050;-72
2023/06/07 04:39:00;;;;;;;12.98;6.15;;;;;;;12.69;79.32;101866.63;5007531;28;20096;-73
2023/06/07 04:41:52;;;;;;;12.25;6.38;;;;;;;12.77;79.02;101871.75;5018765;28;20050;-73
2023/06/07 04:44:39;;;;;;;10.68;6.00;;;;;;;12.78;78.61;101873.47;5022293;28;20046;-73
2023/06/07 04:47:29;;;;;;;13.23;6.38;;;;;;;12.80;78.38;101876.97;5022069;28;20077;-71
2023/06/07 04:50:20;;;;;;;11.57;6.18;;;;;;;12.77;78.49;101877.91;5026388;28;20492;-72
2023/06/07 04:53:06;;;;;;;11.43;6.22;;;;;;;12.69;78.34;101883.38;5032481;28;20046;-71
2023/06/07 04:55:51;;;;;;;12.57;6.70;;;;;;;12.63;78.58;101874.69;5030055;28;20944;-72
2023/06/07 04:58:39;;;;;;;13.73;6.13;;;;;;;12.68;79.11;101883.41;5016173;28;20058;-72
2023/06/07 05:01:29;;;;;;;14.48;6.63;;;;;;;12.67;78.74;101882.53;5010492;28;20062;-72
2023/06/07 05:04:16;;;;;;;14.00;6.43;;;;;;;12.67;78.84;101873.72;5019450;28;20045;-72
2023/06/07 05:07:08;;;;;;;12.00;5.97;;;;;;;12.73;78.93;101882.41;5014827;28;20500;-72
2023/06/07 05:09:57;;;;;;;17.30;6.63;;;;;;;12.82;78.51;101869.84;5015716;28;20536;-72
2023/06/07 05:12:43;;;;;;;13.35;6.65;;;;;;;13.05;77.77;101882.53;5015964;28;20042;-71
2023/06/07 05:15:31;;;;;;;13.73;6.72;;;;;;;13.13;77.09;101874.41;5007946;28;20054;-72
2023/06/07 05:18:18;;;;;;;16.38;6.57;;;;;;;13.21;77.19;101880.38;4997802;28;20056;-72
2023/06/07 05:21:04;;;;;;;11.00;6.32;;;;;;;13.36;76.67;101882.66;5012832;28;20046;-73
2023/06/07 05:23:49;;;;;;;14.68;7.22;;;;;;;13.43;75.69;101882.53;5024057;28;20054;-72
2023/06/07 05:26:35;;;;;;;16.23;6.70;;;;;;;13.40;75.30;101879.97;5020356;28;20061;-72
2023/06/07 05:29:21;;;;;;;16.58;6.40;;;;;;;13.41;75.20;101887.00;5018648;28;20666;-72
2023/06/07 05:32:08;;;;;;;13.98;6.68;;;;;;;13.41;75.17;101887.88;5011177;28;20046;-72
2023/06/07 05:34:57;;;;;;;14.80;6.55;;;;;;;13.64;75.15;101879.31;5009750;28;20129;-72
2023/06/07 05:37:43;;;;;;;11.63;6.60;;;;;;;14.50;72.34;101876.91;5008453;28;20541;-72
2023/06/07 05:40:28;;;;;;;14.48;6.68;;;;;;;14.61;71.29;101880.13;5010925;28;20053;-72
2023/06/07 05:43:13;;;;;;;15.38;6.28;;;;;;;14.37;71.79;101887.91;5010379;28;20114;-71
2023/06/07 05:46:00;;;;;;;14.98;6.32;;;;;;;14.13;72.33;101882.41;5007249;28;20545;-72
2023/06/07 05:48:46;;;;;;;14.13;6.57;;;;;;;13.99;72.60;101876.63;5006125;28;20054;-72
2023/06/07 05:51:36;;;;;;;13.30;5.82;;;;;;;13.92;74.21;101880.38;5021954;28;20061;-72
2023/06/07 05:54:21;;;;;;;15.35;6.28;;;;;;;13.95;73.80;101891.75;5007413;28;20047;-73
2023/06/07 05:57:07;;;;;;;8.98;5.78;;;;;;;13.91;73.50;101892.72;5026606;28;20050;-71
2023/06/07 05:59:52;;;;;;;14.40;6.70;;;;;;;13.90;73.48;101892.78;4999570;28;20137;-71
2023/06/07 06:02:42;;;;;;;12.32;6.15;;;;;;;13.91;73.03;101897.16;5024145;28;20554;-71
2023/06/07 06:05:28;;;;;;;11.45;5.72;;;;;;;13.90;73.37;101898.94;5027100;28;20054;-72
2023/06/07 06:08:15;;;;;;;12.40;6.13;;;;;;;13.91;73.40;101892.72;5006974;28;20133;-72
2023/06/07 06:11:01;;;;;;;14.82;6.20;;;;;;;14.02;73.49;101895.09;5009936;28;20045;-72
2023/06/07 06:13:48;;;;;;;12.50;6.15;;;;;;;14.10;72.54;101886.91;5012646;28;20046;-72
2023/06/07 06:16:34;;;;;;;12.90;6.47;;;;;;;14.21;71.89;101884.81;5023219;28;20506;-72
2023/06/07 06:19:20;;;;;;;16.00;6.93;;;;;;;14.20;72.23;101885.72;5025887;28;20046;-72
2023/06/07 06:22:05;;;;;;;15.02;6.45;;;;;;;14.27;71.90;101892.63;5027463;28;20573;-72
2023/06/07 06:24:50;;;;;;;16.70;6.68;;;;;;;14.32;70.91;101897.78;5026538;28;20058;-72
2023/06/07 06:27:36;;;;;;;10.80;5.90;;;;;;;14.39;71.17;101909.94;5008513;28;20435;-72
2023/06/07 06:30:23;;;;;;;13.27;6.20;;;;;;;14.35;71.18;101905.63;5022798;28;20113;-72
2023/06/07 06:33:10;;;;;;;11.98;5.97;;;;;;;14.38;71.24;101905.56;5027625;28;20054;-72
2023/06/07 06:35:55;;;;;;;12.98;6.28;;;;;;;14.42;70.78;101923.13;5011336;28;20121;-72
2023/06/07 06:38:40;;;;;;;9.10;5.53;;;;;;;14.35;71.14;101937.47;5025797;28;20145;-72
2023/06/07 06:41:25;;;;;;;10.52;6.07;;;;;;;14.33;71.13;101936.66;5013933;28;20045;-72
2023/06/07 06:44:11;;;;;;;13.77;5.97;;;;;;;14.36;71.84;101935.69;4996529;28;20050;-72
2023/06/07 06:46:56;;;;;;;13.45;6.50;;;;;;;14.39;71.89;101938.28;5024116;28;20038;-73
2023/06/07 06:49:41;;;;;;;15.07;6.22;;;;;;;14.44;71.35;101939.00;5022474;28;20042;-72
2023/06/07 06:52:27;;;;;;;13.80;6.22;;;;;;;14.47;71.48;101927.41;5018146;28;20050;-72
2023/06/07 06:55:12;;;;;;;11.48;5.70;;;;;;;14.51;70.95;101934.38;5026899;28;20050;-72
2023/06/07 06:57:57;;;;;;;13.60;6.38;;;;;;;14.54;71.08;101931.66;5026863;28;20141;-72
2023/06/07 07:00:42;;;;;;;14.75;6.30;;;;;;;14.56;71.33;101935.97;5025864;28;20054;-72
2023/06/07 07:03:28;;;;;;;15.20;6.05;;;;;;;14.57;70.79;101928.88;5012100;28;20046;-72
2023/06/07 07:06:13;;;;;;;12.43;5.60;;;;;;;14.62;70.05;101936.69;5024976;28;20093;-74
2023/06/07 07:08:59;;;;;;;10.73;5.90;;;;;;;14.62;69.81;101942.00;5025900;28;20076;-72
2023/06/07 07:11:45;;;;;;;12.80;5.47;;;;;;;14.64;70.23;101940.19;5024238;28;20108;-72
2023/06/07 07:14:30;;;;;;;13.63;5.70;;;;;;;14.73;69.91;101943.47;5026669;28;20105;-72
2023/06/07 07:17:16;;;;;;;12.90;6.25;;;;;;;14.84;69.73;101951.09;5026770;28;20046;-72
2023/06/07 07:20:05;;;;;;;12.48;5.18;;;;;;;14.95;69.66;101950.78;4991956;28;20542;-72
2023/06/07 07:22:51;;;;;;;13.55;5.53;;;;;;;15.11;68.17;101948.50;5006804;28;20137;-71
2023/06/07 07:25:36;;;;;;;13.70;5.47;;;;;;;15.18;68.45;101952.72;5007987;28;20055;-72
2023/06/07 07:28:22;;;;;;;9.52;4.88;;;;;;;15.25;68.69;101958.69;5007267;28;20054;-72
2023/06/07 07:31:07;;;;;;;14.77;5.50;;;;;;;15.31;68.38;101952.31;5024525;28;20054;-72
2023/06/07 07:33:53;;;;;;;17.05;5.57;;;;;;;15.26;68.98;101948.94;5031969;28;20105;-72
2023/06/07 07:36:39;;;;;;;10.75;5.25;;;;;;;15.36;68.88;101956.53;5033903;28;20480;-72
2023/06/07 07:39:25;;;;;;;11.95;5.07;;;;;;;15.47;67.94;101947.34;5011985;28;20050;-72
2023/06/07 07:42:11;;;;;;;17.80;6.68;;;;;;;15.63;67.73;101948.59;5011531;28;20054;-72
2023/06/07 07:44:56;;;;;;;13.63;5.30;;;;;;;15.82;67.08;101948.78;5027459;28;20050;-72
2023/06/07 07:47:44;;;;;;;10.02;5.32;;;;;;;15.96;66.12;101955.47;5027069;28;20046;-72
2023/06/07 07:50:30;;;;;;;13.38;5.10;;;;;;;16.04;66.12;101945.41;5025221;28;20106;-72
2023/06/07 07:53:15;;;;;;;10.93;5.07;;;;;;;16.15;65.71;101955.69;5012727;28;20744;-72
2023/06/07 07:56:01;;;;;;;12.95;5.00;;;;;;;16.14;65.99;101960.13;5027584;28;20085;-73
2023/06/07 07:58:50;;;;;;;11.95;5.60;;;;;;;16.30;65.49;101957.78;5026045;28;20042;-72
2023/06/07 08:01:36;;;;;;;15.27;5.72;;;;;;;16.41;64.61;101949.41;5011778;28;20428;-72
2023/06/07 08:04:21;;;;;;;12.75;5.00;;;;;;;16.49;64.77;101957.09;5026978;28;20411;-72
2023/06/07 08:07:06;;;;;;;14.73;5.90;;;;;;;16.74;63.96;101953.50;5026945;28;20050;-72
2023/06/07 08:09:51;;;;;;;11.25;5.20;;;;;;;16.90;63.62;101961.75;5011624;28;20116;-72
2023/06/07 08:12:37;;;;;;;13.02;5.43;;;;;;;17.02;63.35;101956.00;5011308;28;20050;-72
2023/06/07 08:15:22;;;;;;;11.30;4.93;;;;;;;17.13;63.25;101957.34;5011820;28;20046;-72
2023/06/07 08:18:07;;;;;;;14.48;5.57;;;;;;;17.28;62.59;101950.53;5025842;28;20046;-72
2023/06/07 08:20:53;;;;;;;15.00;5.65;;;;;;;17.36;61.97;101951.94;5025004;28;20124;-72
2023/06/07 08:23:38;;;;;;;12.63;5.65;;;;;;;17.37;62.65;101945.69;5027529;28;20069;-72
2023/06/07 08:26:24;;;;;;;14.80;5.90;;;;;;;17.49;62.72;101947.00;5030249;28;20129;-72
2023/06/07 08:29:09;;;;;;;14.45;5.32;;;;;;;17.70;62.68;101941.69;5027550;28;20121;-72
2023/06/07 08:31:56;;;;;;;14.60;6.18;;;;;;;17.90;61.74;101948.78;5014110;28;20046;-72
2023/06/07 08:34:42;;;;;;;14.40;5.18;;;;;;;18.11;61.47;101951.47;5015291;28;20053;-73
2023/06/07 08:37:27;;;;;;;11.40;4.90;;;;;;;18.21;60.41;101949.28;4998230;28;20134;-73
2023/06/07 08:40:17;;;;;;;14.50;4.80;;;;;;;18.19;60.36;101959.16;5029631;28;20046;-73
2023/06/07 08:43:03;;;;;;;12.48;5.20;;;;;;;18.21;59.88;101960.81;5014704;28;20046;-72
2023/06/07 08:45:50;;;;;;;16.08;5.55;;;;;;;18.10;60.58;101963.09;5028738;28;20481;-73
2023/06/07 08:48:39;;;;;;;11.35;4.93;;;;;;;18.10;60.79;101955.09;5015223;28;20085;-73
2023/06/07 08:51:28;;;;;;;16.67;4.75;;;;;;;18.08;61.68;101949.81;4993986;28;20170;-72
2023/06/07 08:54:20;;;;;;;10.18;4.97;;;;;;;18.13;60.47;101957.63;5021915;28;20066;-73
2023/06/07 08:57:07;;;;;;;10.25;4.75;;;;;;;18.05;60.39;101965.97;5021225;28;20050;-72
2023/06/07 08:59:54;;;;;;;11.68;4.80;;;;;;;18.03;60.79;101965.16;5007266;28;20065;-72
2023/06/07 09:02:40;;;;;;;15.50;5.10;;;;;;;18.12;59.21;101956.75;5007978;28;20050;-72
2023/06/07 09:05:25;;;;;;;11.35;4.55;;;;;;;18.13;58.26;101958.47;5025366;28;20497;-72
2023/06/07 09:08:11;;;;;;;8.50;4.15;;;;;;;18.18;58.69;101957.41;5028603;28;20050;-72
2023/06/07 09:10:56;;;;;;;8.32;4.10;;;;;;;18.28;58.19;101945.41;5029807;28;20133;-73
2023/06/07 09:13:42;;;;;;;14.20;4.63;;;;;;;18.35;58.26;101954.84;5028157;28;20081;-73
2023/06/07 09:16:28;;;;;;;12.32;4.75;;;;;;;18.46;57.88;101954.38;5012642;28;20046;-72
2023/06/07 09:19:29;;;;;;;13.13;4.72;;;;;;;18.53;57.21;101954.94;5027834;28;20136;-73
2023/06/07 09:22:22;;;;;;;11.85;4.32;;;;;;;18.50;56.95;101958.63;5028333;28;20050;-72
2023/06/07 09:25:07;;;;;;;9.57;4.10;;;;;;;18.46;56.92;101959.72;5028681;28;20054;-72
2023/06/07 09:27:54;;;;;;;10.35;4.65;;;;;;;18.51;56.86;101962.16;5014490;28;20041;-72
2023/06/07 09:30:59;;;;;;;11.88;4.53;;;;;;;18.55;56.92;101958.41;5041495;28;20049;-72
2023/06/07 09:33:46;;;;;;;12.43;4.50;;;;;;;18.61;57.46;101956.31;5008562;28;20046;-72
2023/06/07 09:36:31;;;;;;;8.27;4.22;;;;;;;18.67;57.06;101951.66;5021241;28;20156;-72
2023/06/07 09:39:26;;;;;;;12.40;4.93;;;;;;;18.71;56.53;101940.75;5013588;28;20050;-72
2023/06/07 09:42:16;;;;;;;23.08;5.80;;;;;;;18.62;57.35;101939.34;5028296;28;20125;-73
2023/06/07 09:45:14;;;;;;;15.63;4.82;;;;;;;18.75;58.17;101938.78;5028419;28;20057;-72
2023/06/07 09:48:04;;;;;;;11.30;4.35;;;;;;;18.84;57.77;101943.69;5028111;28;20042;-72
2023/06/07 09:50:58;;;;;;;12.43;4.80;;;;;;;18.77;57.83;101948.44;5027700;28;21051;-74
2023/06/07 09:54:01;;;;;;;16.88;4.75;;;;;;;18.69;58.25;101947.06;5010529;28;20140;-73
2023/06/07 09:56:46;;;;;;;9.63;4.75;;;;;;;18.60;58.60;101951.91;5027707;28;20606;-72
2023/06/07 09:59:31;;;;;;;11.52;4.85;;;;;;;18.53;58.68;101955.81;5008290;28;20050;-72
2023/06/07 10:02:25;;;;;;;12.43;4.53;;;;;;;18.56;59.10;101946.78;5008794;28;20485;-72
2023/06/07 10:05:15;;;;;;;16.23;5.22;;;;;;;18.54;59.10;101944.19;5020270;28;20038;-72
2023/06/07 10:08:03;;;;;;;13.55;4.90;;;;;;;18.47;59.08;101948.94;5026288;28;20050;-72
2023/06/07 10:10:52;;;;;;;13.70;4.68;;;;;;;18.42;59.53;101947.44;5029466;28;20046;-72
2023/06/07 10:13:39;;;;;;;10.68;4.90;;;;;;;18.47;59.52;101945.41;5027222;28;20045;-72
2023/06/07 10:16:29;;;;;;;15.98;5.30;;;;;;;18.51;59.34;101948.81;5023995;28;20184;-72
2023/06/07 10:19:20;;;;;;;14.73;5.75;;;;;;;18.51;59.79;101936.31;5012920;28;20053;-73
2023/06/07 10:22:15;;;;;;;18.42;5.90;;;;;;;18.51;60.50;101930.97;5028390;28;20145;-72
2023/06/07 10:25:12;;;;;;;14.07;5.38;;;;;;;18.68;60.42;101922.19;5013064;28;20897;-73
2023/06/07 10:28:21;;;;;;;21.67;6.22;;;;;;;18.86;60.54;101911.56;5028381;28;20061;-73
2023/06/07 10:31:12;;;;;;;16.30;6.38;;;;;;;19.00;60.08;101917.13;5038937;28;21198;-72
2023/06/07 10:33:59;;;;;;;19.98;6.10;;;;;;;19.12;60.16;101917.47;5025627;28;20045;-72
2023/06/07 10:36:45;;;;;;;20.33;6.38;;;;;;;19.29;60.57;101916.59;5008143;28;20050;-73
2023/06/07 10:39:30;;;;;;;13.25;5.60;;;;;;;19.51;60.31;101909.22;5026368;28;20527;-73
2023/06/07 10:42:17;;;;;;;15.43;5.68;;;;;;;19.74;58.66;101915.22;5026363;28;20058;-72
2023/06/07 10:45:04;;;;;;;11.90;5.50;;;;;;;19.85;57.51;101918.22;5025875;28;20041;-72
2023/06/07 10:47:50;;;;;;;12.80;5.47;;;;;;;19.93;56.62;101906.25;5028440;28;20493;-72
2023/06/07 10:50:46;;;;;;;12.48;5.57;;;;;;;19.99;57.08;101913.97;5026937;28;20489;-73
2023/06/07 10:53:55;;;;;;;13.40;5.70;;;;;;;20.22;56.63;101912.72;5010237;28;20054;-72
2023/06/07 10:56:41;;;;;;;12.82;5.30;;;;;;;20.46;56.07;101917.66;5028132;28;20042;-73
2023/06/07 10:59:27;;;;;;;18.50;6.10;;;;;;;20.71;55.48;101916.31;5027631;28;20387;-72
2023/06/07 11:02:20;;;;;;;15.00;5.80;;;;;;;21.01;54.84;101915.53;5024384;28;20049;-72
2023/06/07 11:05:06;;;;;;;17.92;6.47;;;;;;;21.10;54.65;101910.53;5025377;28;20050;-73
2023/06/07 11:08:30;;;;;;;15.93;5.57;;;;;;;21.34;53.73;101909.16;5026271;28;20680;-72
2023/06/07 11:11:41;;;;;;;11.53;5.87;;;;;;;21.28;52.86;101913.06;5025501;28;20054;-72
2023/06/07 11:14:26;;;;;;;14.27;6.00;;;;;;;21.27;53.10;101908.66;5011905;28;20098;-72
2023/06/07 11:17:54;;;;;;;12.23;5.70;;;;;;;21.42;52.45;101914.94;5025505;28;20049;-72
2023/06/07 11:20:41;;;;;;;13.38;5.55;;;;;;;21.51;52.75;101911.69;5017466;28;20518;-72
2023/06/07 11:23:28;;;;;;;11.60;5.20;;;;;;;21.76;51.21;101910.25;5012358;28;20932;-72
2023/06/07 11:26:14;;;;;;;11.93;5.65;;;;;;;21.75;51.88;101904.97;5027780;28;20115;-72
2023/06/07 11:29:00;;;;;;;13.80;5.30;;;;;;;21.94;51.64;101910.94;5026911;28;20050;-73
2023/06/07 11:31:48;;;;;;;12.25;6.05;;;;;;;22.18;50.78;101905.84;5018080;28;20042;-72
2023/06/07 11:34:33;;;;;;;14.07;5.57;;;;;;;22.37;50.25;101893.97;5012542;28;20046;-72
2023/06/07 11:37:19;;;;;;;12.23;5.30;;;;;;;22.70;48.60;101898.13;5028148;28;20041;-72
2023/06/07 11:40:07;;;;;;;14.65;5.80;;;;;;;22.73;49.25;101897.94;5001119;28;20054;-75
2023/06/07 11:42:53;;;;;;;15.52;5.80;;;;;;;22.80;49.54;101893.88;5007661;28;20426;-73
2023/06/07 11:45:43;;;;;;;16.27;5.70;;;;;;;22.91;48.12;101892.31;5022214;28;20094;-72
2023/06/07 11:48:30;;;;;;;12.55;5.53;;;;;;;22.82;48.88;101901.88;5014251;28;20033;-73
2023/06/07 11:51:17;;;;;;;12.13;6.30;;;;;;;22.77;49.01;101893.22;5003886;28;20054;-72
2023/06/07 11:54:02;;;;;;;14.38;6.20;;;;;;;22.79;50.17;101888.63;5011928;28;20054;-73
2023/06/07 11:56:48;;;;;;;13.20;5.47;;;;;;;22.98;49.18;101884.69;5030431;28;20053;-73
2023/06/07 11:59:33;;;;;;;10.43;5.53;;;;;;;22.98;48.32;101890.09;5014506;28;20061;-72
2023/06/07 12:02:19;;;;;;;14.40;5.63;;;;;;;22.85;49.11;101882.81;5027998;28;20172;-73
2023/06/07 12:05:06;;;;;;;14.20;5.25;;;;;;;22.84;49.43;101875.72;5028273;28;20050;-73
2023/06/07 12:07:55;;;;;;;13.65;6.07;;;;;;;22.92;48.51;101888.66;5030598;28;20046;-73
2023/06/07 12:10:51;;;;;;;14.30;5.28;;;;;;;22.79;49.36;101883.25;5030346;28;20057;-73
2023/06/07 12:13:38;;;;;;;;;;;;;;;23.02;49.55;101880.84;5028144;28;20135;-73
2023/06/07 12:16:23;;;;;;;11.48;5.57;;;;;;;23.58;48.12;101876.16;5027763;28;19979;-73
2023/06/07 12:19:09;;;;;;;11.27;5.20;;;;;;;23.69;47.38;101877.22;5013857;28;20215;-73
2023/06/07 12:22:04;;;;;;;13.10;5.03;;;;;;;23.73;46.86;101878.75;5031040;28;20042;-72
2023/06/07 12:24:49;;;;;;;12.85;5.35;;;;;;;23.84;47.68;101867.22;5010271;28;20058;-73
2023/06/07 12:27:36;;;;;;;11.77;4.65;;;;;;;24.05;46.52;101870.25;5014332;28;20042;-73
2023/06/07 12:30:22;;;;;;;12.07;5.25;;;;;;;23.97;45.64;101865.41;5024983;28;20046;-74
2023/06/07 12:33:17;;;;;;;10.57;4.85;;;;;;;23.86;45.12;101860.75;5032130;28;20089;-73
2023/06/07 12:36:03;;;;;;;9.40;4.75;;;;;;;23.63;45.94;101869.59;5029483;28;20050;-73
2023/06/07 12:38:52;;;;;;;10.88;4.38;;;;;;;23.63;46.14;101856.13;5028945;28;20501;-73
2023/06/07 12:41:39;;;;;;;12.57;4.47;;;;;;;23.87;45.61;101856.22;5028291;28;20474;-72
2023/06/07 12:44:24;;;;;;;9.18;4.90;;;;;;;24.03;44.51;101848.81;5013663;28;20133;-73
2023/06/07 12:47:10;;;;;;;10.00;4.50;;;;;;;24.24;45.21;101840.16;5011708;28;20042;-72
2023/06/07 12:49:58;;;;;;;8.95;4.47;;;;;;;24.45;43.64;101842.25;5037709;28;20058;-72
2023/06/07 12:52:43;;;;;;;11.90;4.32;;;;;;;24.71;43.87;101844.88;5013580;28;20038;-73